sensor_id;sensor_type;location;lat;lon;timestamp;P1;durP1;ratioP1;P2;durP2;ratioP2
20296;SDS011;10307;40.100;18.336;2022-11-11T00:00:14;24.63;;;12.77;;
20296;SDS011;10307;40.100;18.336;2022-11-11T00:02:59;20.15;;;12.18;;
20296;SDS011;10307;40.100;18.336;2022-11-11T00:05:44;23.80;;;12.88;;
20296;SDS011;10307;40.100;18.336;2022-11-11T00:08:29;23.75;;;13.57;;
20296;SDS011;10307;40.100;18.336;2022-11-11T00:11:15;23.42;;;13.32;;
20296;SDS011;10307;40.100;18.336;2022-11-11T00:14:00;21.17;;;12.95;;
20296;SDS011;10307;40.100;18.336;2022-11-11T00:16:44;22.65;;;12.80;;
20296;SDS011;10307;40.100;18.336;2022-11-11T00:19:48;24.08;;;14.65;;
20296;SDS011;10307;40.100;18.336;2022-11-11T00:22:51;27.23;;;13.27;;
20296;SDS011;10307;40.100;18.336;2022-11-11T00:25:54;23.48;;;12.20;;
20296;SDS011;10307;40.100;18.336;2022-11-11T00:28:40;23.95;;;13.10;;
20296;SDS011;10307;40.100;18.336;2022-11-11T00:31:25;23.70;;;12.27;;
20296;SDS011;10307;40.100;18.336;2022-11-11T00:34:10;24.45;;;13.70;;
20296;SDS011;10307;40.100;18.336;2022-11-11T00:36:55;23.25;;;12.50;;
20296;SDS011;10307;40.100;18.336;2022-11-11T00:39:39;22.75;;;13.40;;
20296;SDS011;10307;40.100;18.336;2022-11-11T00:42:25;23.92;;;13.52;;
20296;SDS011;10307;40.100;18.336;2022-11-11T00:45:10;28.92;;;14.60;;
20296;SDS011;10307;40.100;18.336;2022-11-11T00:47:55;27.05;;;15.10;;
20296;SDS011;10307;40.100;18.336;2022-11-11T00:50:59;26.58;;;13.77;;
20296;SDS011;10307;40.100;18.336;2022-11-11T00:53:44;24.92;;;13.55;;
20296;SDS011;10307;40.100;18.336;2022-11-11T00:56:29;23.02;;;12.82;;
20296;SDS011;10307;40.100;18.336;2022-11-11T00:59:14;27.02;;;14.60;;
20296;SDS011;10307;40.100;18.336;2022-11-11T01:01:59;25.35;;;12.98;;
20296;SDS011;10307;40.100;18.336;2022-11-11T01:04:43;22.90;;;13.18;;
20296;SDS011;10307;40.100;18.336;2022-11-11T01:07:29;23.15;;;13.93;;
20296;SDS011;10307;40.100;18.336;2022-11-11T01:10:14;25.25;;;14.13;;
20296;SDS011;10307;40.100;18.336;2022-11-11T01:13:19;23.88;;;13.05;;
20296;SDS011;10307;40.100;18.336;2022-11-11T01:16:22;24.38;;;13.57;;
20296;SDS011;10307;40.100;18.336;2022-11-11T01:19:09;23.52;;;12.95;;
20296;SDS011;10307;40.100;18.336;2022-11-11T01:21:53;24.77;;;14.60;;
20296;SDS011;10307;40.100;18.336;2022-11-11T01:24:38;27.52;;;13.70;;
20296;SDS011;10307;40.100;18.336;2022-11-11T01:27:23;24.58;;;14.23;;
20296;SDS011;10307;40.100;18.336;2022-11-11T01:30:08;27.35;;;14.52;;
20296;SDS011;10307;40.100;18.336;2022-11-11T01:32:57;26.73;;;13.57;;
20296;SDS011;10307;40.100;18.336;2022-11-11T01:35:41;26.90;;;14.73;;
20296;SDS011;10307;40.100;18.336;2022-11-11T01:38:26;26.15;;;14.35;;
20296;SDS011;10307;40.100;18.336;2022-11-11T01:41:11;25.42;;;13.15;;
20296;SDS011;10307;40.100;18.336;2022-11-11T01:44:18;26.85;;;14.73;;
20296;SDS011;10307;40.100;18.336;2022-11-11T01:47:35;24.30;;;13.52;;
20296;SDS011;10307;40.100;18.336;2022-11-11T01:50:39;27.58;;;14.50;;
20296;SDS011;10307;40.100;18.336;2022-11-11T01:53:23;24.63;;;13.73;;
20296;SDS011;10307;40.100;18.336;2022-11-11T01:56:08;26.13;;;14.35;;
20296;SDS011;10307;40.100;18.336;2022-11-11T01:58:55;24.20;;;13.02;;
20296;SDS011;10307;40.100;18.336;2022-11-11T02:01:43;24.88;;;13.38;;
20296;SDS011;10307;40.100;18.336;2022-11-11T02:04:31;26.00;;;13.65;;
20296;SDS011;10307;40.100;18.336;2022-11-11T02:07:36;22.67;;;13.02;;
20296;SDS011;10307;40.100;18.336;2022-11-11T02:10:23;24.02;;;13.02;;
20296;SDS011;10307;40.100;18.336;2022-11-11T02:13:11;24.20;;;13.00;;
20296;SDS011;10307;40.100;18.336;2022-11-11T02:16:16;25.95;;;13.75;;
20296;SDS011;10307;40.100;18.336;2022-11-11T02:19:02;27.15;;;13.63;;
20296;SDS011;10307;40.100;18.336;2022-11-11T02:21:49;21.35;;;12.38;;
20296;SDS011;10307;40.100;18.336;2022-11-11T02:24:38;25.90;;;13.85;;
20296;SDS011;10307;40.100;18.336;2022-11-11T02:27:26;22.98;;;13.05;;
20296;SDS011;10307;40.100;18.336;2022-11-11T02:30:13;22.48;;;13.05;;
20296;SDS011;10307;40.100;18.336;2022-11-11T02:32:58;23.85;;;13.38;;
20296;SDS011;10307;40.100;18.336;2022-11-11T02:35:44;23.88;;;13.50;;
20296;SDS011;10307;40.100;18.336;2022-11-11T02:38:41;27.15;;;12.98;;
20296;SDS011;10307;40.100;18.336;2022-11-11T02:41:27;23.17;;;12.93;;
20296;SDS011;10307;40.100;18.336;2022-11-11T02:44:30;27.58;;;14.35;;
20296;SDS011;10307;40.100;18.336;2022-11-11T02:47:15;25.80;;;13.30;;
20296;SDS011;10307;40.100;18.336;2022-11-11T02:50:00;26.05;;;13.07;;
20296;SDS011;10307;40.100;18.336;2022-11-11T02:52:45;25.05;;;13.48;;
20296;SDS011;10307;40.100;18.336;2022-11-11T02:55:29;23.65;;;12.82;;
20296;SDS011;10307;40.100;18.336;2022-11-11T02:58:14;23.52;;;12.18;;
20296;SDS011;10307;40.100;18.336;2022-11-11T03:00:59;26.55;;;13.60;;
20296;SDS011;10307;40.100;18.336;2022-11-11T03:03:44;23.70;;;13.15;;
20296;SDS011;10307;40.100;18.336;2022-11-11T03:06:28;21.60;;;12.45;;
20296;SDS011;10307;40.100;18.336;2022-11-11T03:09:13;22.80;;;12.73;;
20296;SDS011;10307;40.100;18.336;2022-11-11T03:11:58;20.75;;;11.93;;
20296;SDS011;10307;40.100;18.336;2022-11-11T03:14:43;23.52;;;12.88;;
20296;SDS011;10307;40.100;18.336;2022-11-11T03:17:29;31.02;;;13.45;;
20296;SDS011;10307;40.100;18.336;2022-11-11T03:20:23;25.88;;;13.13;;
20296;SDS011;10307;40.100;18.336;2022-11-11T03:23:27;22.15;;;11.43;;
20296;SDS011;10307;40.100;18.336;2022-11-11T03:26:12;25.15;;;12.35;;
20296;SDS011;10307;40.100;18.336;2022-11-11T03:28:59;22.45;;;12.38;;
20296;SDS011;10307;40.100;18.336;2022-11-11T03:31:44;22.40;;;12.20;;
20296;SDS011;10307;40.100;18.336;2022-11-11T03:34:29;21.75;;;12.27;;
20296;SDS011;10307;40.100;18.336;2022-11-11T03:37:13;25.67;;;12.57;;
20296;SDS011;10307;40.100;18.336;2022-11-11T03:40:16;26.27;;;12.82;;
20296;SDS011;10307;40.100;18.336;2022-11-11T03:43:01;25.20;;;11.90;;
20296;SDS011;10307;40.100;18.336;2022-11-11T03:45:46;22.38;;;12.25;;
20296;SDS011;10307;40.100;18.336;2022-11-11T03:48:32;22.67;;;12.38;;
20296;SDS011;10307;40.100;18.336;2022-11-11T03:51:17;23.30;;;12.18;;
20296;SDS011;10307;40.100;18.336;2022-11-11T03:54:02;21.98;;;12.48;;
20296;SDS011;10307;40.100;18.336;2022-11-11T03:56:47;24.98;;;12.20;;
20296;SDS011;10307;40.100;18.336;2022-11-11T03:59:32;21.70;;;12.27;;
20296;SDS011;10307;40.100;18.336;2022-11-11T04:02:17;22.52;;;11.25;;
20296;SDS011;10307;40.100;18.336;2022-11-11T04:05:20;27.27;;;13.15;;
20296;SDS011;10307;40.100;18.336;2022-11-11T04:08:24;19.88;;;11.35;;
20296;SDS011;10307;40.100;18.336;2022-11-11T04:11:31;20.48;;;11.73;;
20296;SDS011;10307;40.100;18.336;2022-11-11T04:14:19;18.42;;;10.85;;
20296;SDS011;10307;40.100;18.336;2022-11-11T04:17:22;22.98;;;12.18;;
20296;SDS011;10307;40.100;18.336;2022-11-11T04:20:07;20.13;;;11.02;;
20296;SDS011;10307;40.100;18.336;2022-11-11T04:23:11;22.48;;;10.88;;
20296;SDS011;10307;40.100;18.336;2022-11-11T04:25:59;20.77;;;11.57;;
20296;SDS011;10307;40.100;18.336;2022-11-11T04:28:44;24.83;;;12.43;;
20296;SDS011;10307;40.100;18.336;2022-11-11T04:31:47;31.98;;;12.15;;
20296;SDS011;10307;40.100;18.336;2022-11-11T04:34:51;25.48;;;12.23;;
20296;SDS011;10307;40.100;18.336;2022-11-11T04:37:44;22.48;;;11.70;;
20296;SDS011;10307;40.100;18.336;2022-11-11T04:40:32;22.67;;;12.05;;
20296;SDS011;10307;40.100;18.336;2022-11-11T04:43:35;22.35;;;11.02;;
20296;SDS011;10307;40.100;18.336;2022-11-11T04:46:40;21.58;;;11.68;;
20296;SDS011;10307;40.100;18.336;2022-11-11T04:49:24;22.83;;;11.02;;
20296;SDS011;10307;40.100;18.336;2022-11-11T04:52:09;21.00;;;10.77;;
20296;SDS011;10307;40.100;18.336;2022-11-11T04:55:09;23.27;;;11.95;;
20296;SDS011;10307;40.100;18.336;2022-11-11T04:58:13;17.35;;;9.18;;
20296;SDS011;10307;40.100;18.336;2022-11-11T05:01:00;21.52;;;10.02;;
20296;SDS011;10307;40.100;18.336;2022-11-11T05:03:44;20.45;;;10.63;;
20296;SDS011;10307;40.100;18.336;2022-11-11T05:06:29;19.00;;;9.95;;
20296;SDS011;10307;40.100;18.336;2022-11-11T05:09:32;21.88;;;11.98;;
20296;SDS011;10307;40.100;18.336;2022-11-11T05:12:17;21.13;;;10.48;;
20296;SDS011;10307;40.100;18.336;2022-11-11T05:15:02;20.60;;;10.27;;
20296;SDS011;10307;40.100;18.336;2022-11-11T05:18:06;22.60;;;10.77;;
20296;SDS011;10307;40.100;18.336;2022-11-11T05:21:18;22.77;;;10.38;;
20296;SDS011;10307;40.100;18.336;2022-11-11T05:24:14;21.02;;;11.10;;
20296;SDS011;10307;40.100;18.336;2022-11-11T05:27:18;22.88;;;10.43;;
20296;SDS011;10307;40.100;18.336;2022-11-11T05:30:04;21.10;;;11.73;;
20296;SDS011;10307;40.100;18.336;2022-11-11T05:32:50;23.08;;;11.07;;
20296;SDS011;10307;40.100;18.336;2022-11-11T05:35:37;21.90;;;11.50;;
20296;SDS011;10307;40.100;18.336;2022-11-11T05:38:22;20.00;;;11.63;;
20296;SDS011;10307;40.100;18.336;2022-11-11T05:41:07;23.05;;;10.98;;
20296;SDS011;10307;40.100;18.336;2022-11-11T05:43:52;26.10;;;11.15;;
20296;SDS011;10307;40.100;18.336;2022-11-11T05:46:37;25.10;;;11.90;;
20296;SDS011;10307;40.100;18.336;2022-11-11T05:49:21;26.75;;;12.57;;
20296;SDS011;10307;40.100;18.336;2022-11-11T05:52:08;21.30;;;11.75;;
20296;SDS011;10307;40.100;18.336;2022-11-11T05:54:55;19.90;;;11.02;;
20296;SDS011;10307;40.100;18.336;2022-11-11T05:57:39;20.33;;;11.05;;
20296;SDS011;10307;40.100;18.336;2022-11-11T06:00:24;20.85;;;10.55;;
20296;SDS011;10307;40.100;18.336;2022-11-11T06:03:09;18.73;;;9.77;;
20296;SDS011;10307;40.100;18.336;2022-11-11T06:05:54;23.00;;;10.68;;
20296;SDS011;10307;40.100;18.336;2022-11-11T06:08:39;15.90;;;9.18;;
20296;SDS011;10307;40.100;18.336;2022-11-11T06:11:24;18.08;;;9.90;;
20296;SDS011;10307;40.100;18.336;2022-11-11T06:14:10;24.88;;;11.07;;
20296;SDS011;10307;40.100;18.336;2022-11-11T06:16:55;20.63;;;10.60;;
20296;SDS011;10307;40.100;18.336;2022-11-11T06:19:40;16.83;;;9.52;;
20296;SDS011;10307;40.100;18.336;2022-11-11T06:22:25;20.90;;;10.32;;
20296;SDS011;10307;40.100;18.336;2022-11-11T06:25:30;20.67;;;10.88;;
20296;SDS011;10307;40.100;18.336;2022-11-11T06:28:35;17.05;;;9.48;;
20296;SDS011;10307;40.100;18.336;2022-11-11T06:31:22;18.67;;;10.52;;
20296;SDS011;10307;40.100;18.336;2022-11-11T06:34:08;20.77;;;10.52;;
20296;SDS011;10307;40.100;18.336;2022-11-11T06:36:53;20.02;;;10.35;;
20296;SDS011;10307;40.100;18.336;2022-11-11T06:39:37;21.02;;;11.63;;
20296;SDS011;10307;40.100;18.336;2022-11-11T06:42:22;24.42;;;11.27;;
20296;SDS011;10307;40.100;18.336;2022-11-11T06:45:07;19.83;;;10.15;;
20296;SDS011;10307;40.100;18.336;2022-11-11T06:47:52;25.33;;;12.02;;
20296;SDS011;10307;40.100;18.336;2022-11-11T06:50:37;22.05;;;10.65;;
20296;SDS011;10307;40.100;18.336;2022-11-11T06:53:22;25.55;;;11.75;;
20296;SDS011;10307;40.100;18.336;2022-11-11T06:56:07;21.85;;;10.05;;
20296;SDS011;10307;40.100;18.336;2022-11-11T06:58:52;19.80;;;10.30;;
20296;SDS011;10307;40.100;18.336;2022-11-11T07:01:37;20.00;;;10.27;;
20296;SDS011;10307;40.100;18.336;2022-11-11T07:04:22;18.60;;;11.27;;
20296;SDS011;10307;40.100;18.336;2022-11-11T07:07:07;20.88;;;10.90;;
20296;SDS011;10307;40.100;18.336;2022-11-11T07:09:52;19.30;;;10.60;;
20296;SDS011;10307;40.100;18.336;2022-11-11T07:12:42;23.25;;;11.60;;
20296;SDS011;10307;40.100;18.336;2022-11-11T07:15:27;18.05;;;9.43;;
20296;SDS011;10307;40.100;18.336;2022-11-11T07:18:11;22.33;;;11.23;;
20296;SDS011;10307;40.100;18.336;2022-11-11T07:20:57;22.90;;;10.63;;
20296;SDS011;10307;40.100;18.336;2022-11-11T07:23:42;22.23;;;10.55;;
20296;SDS011;10307;40.100;18.336;2022-11-11T07:26:26;18.05;;;9.80;;
20296;SDS011;10307;40.100;18.336;2022-11-11T07:29:11;19.52;;;9.50;;
20296;SDS011;10307;40.100;18.336;2022-11-11T07:31:57;20.00;;;8.88;;
20296;SDS011;10307;40.100;18.336;2022-11-11T07:34:42;17.63;;;9.57;;
20296;SDS011;10307;40.100;18.336;2022-11-11T07:37:30;16.63;;;9.38;;
20296;SDS011;10307;40.100;18.336;2022-11-11T07:40:16;20.15;;;9.35;;
20296;SDS011;10307;40.100;18.336;2022-11-11T07:43:02;18.10;;;8.82;;
20296;SDS011;10307;40.100;18.336;2022-11-11T07:45:47;22.08;;;7.95;;
20296;SDS011;10307;40.100;18.336;2022-11-11T07:48:32;17.33;;;8.93;;
20296;SDS011;10307;40.100;18.336;2022-11-11T07:51:17;17.30;;;8.50;;
20296;SDS011;10307;40.100;18.336;2022-11-11T07:54:01;23.98;;;9.68;;
20296;SDS011;10307;40.100;18.336;2022-11-11T07:56:46;14.80;;;7.82;;
20296;SDS011;10307;40.100;18.336;2022-11-11T07:59:31;15.70;;;7.65;;
20296;SDS011;10307;40.100;18.336;2022-11-11T08:02:16;16.90;;;8.18;;
20296;SDS011;10307;40.100;18.336;2022-11-11T08:05:01;16.98;;;8.20;;
20296;SDS011;10307;40.100;18.336;2022-11-11T08:07:46;20.83;;;7.32;;
20296;SDS011;10307;40.100;18.336;2022-11-11T08:10:32;14.73;;;7.43;;
20296;SDS011;10307;40.100;18.336;2022-11-11T08:13:17;14.93;;;7.40;;
20296;SDS011;10307;40.100;18.336;2022-11-11T08:16:20;16.58;;;7.30;;
20296;SDS011;10307;40.100;18.336;2022-11-11T08:19:05;17.88;;;7.57;;
20296;SDS011;10307;40.100;18.336;2022-11-11T08:21:50;14.93;;;7.30;;
20296;SDS011;10307;40.100;18.336;2022-11-11T08:24:35;16.77;;;7.80;;
20296;SDS011;10307;40.100;18.336;2022-11-11T08:27:20;17.45;;;7.80;;
20296;SDS011;10307;40.100;18.336;2022-11-11T08:30:05;17.02;;;6.57;;
20296;SDS011;10307;40.100;18.336;2022-11-11T08:33:01;13.45;;;7.20;;
20296;SDS011;10307;40.100;18.336;2022-11-11T08:35:48;14.70;;;6.35;;
20296;SDS011;10307;40.100;18.336;2022-11-11T08:38:33;12.93;;;5.70;;
20296;SDS011;10307;40.100;18.336;2022-11-11T08:41:18;11.15;;;4.88;;
20296;SDS011;10307;40.100;18.336;2022-11-11T08:44:05;10.18;;;4.80;;
20296;SDS011;10307;40.100;18.336;2022-11-11T08:46:50;12.70;;;5.18;;
20296;SDS011;10307;40.100;18.336;2022-11-11T08:49:35;15.27;;;4.68;;
20296;SDS011;10307;40.100;18.336;2022-11-11T08:52:19;10.98;;;4.60;;
20296;SDS011;10307;40.100;18.336;2022-11-11T08:55:04;14.95;;;5.40;;
20296;SDS011;10307;40.100;18.336;2022-11-11T08:57:56;9.75;;;4.75;;
20296;SDS011;10307;40.100;18.336;2022-11-11T09:00:42;8.32;;;4.13;;
20296;SDS011;10307;40.100;18.336;2022-11-11T09:03:26;10.10;;;4.43;;
20296;SDS011;10307;40.100;18.336;2022-11-11T09:06:11;10.32;;;4.05;;
20296;SDS011;10307;40.100;18.336;2022-11-11T09:08:56;11.07;;;4.30;;
20296;SDS011;10307;40.100;18.336;2022-11-11T09:11:41;11.80;;;4.63;;
20296;SDS011;10307;40.100;18.336;2022-11-11T09:14:26;9.63;;;4.50;;
20296;SDS011;10307;40.100;18.336;2022-11-11T09:17:10;7.97;;;4.47;;
20296;SDS011;10307;40.100;18.336;2022-11-11T09:19:55;11.30;;;4.20;;
20296;SDS011;10307;40.100;18.336;2022-11-11T09:22:41;11.38;;;4.30;;
20296;SDS011;10307;40.100;18.336;2022-11-11T09:25:27;13.27;;;4.53;;
20296;SDS011;10307;40.100;18.336;2022-11-11T09:28:11;10.40;;;4.05;;
20296;SDS011;10307;40.100;18.336;2022-11-11T09:30:59;12.77;;;4.00;;
20296;SDS011;10307;40.100;18.336;2022-11-11T09:33:45;10.90;;;4.28;;
20296;SDS011;10307;40.100;18.336;2022-11-11T09:36:29;11.00;;;4.20;;
20296;SDS011;10307;40.100;18.336;2022-11-11T09:39:14;7.47;;;3.95;;
20296;SDS011;10307;40.100;18.336;2022-11-11T09:42:05;8.50;;;3.72;;
20296;SDS011;10307;40.100;18.336;2022-11-11T09:45:18;10.45;;;4.28;;
20296;SDS011;10307;40.100;18.336;2022-11-11T09:51:27;11.05;;;4.38;;
20296;SDS011;10307;40.100;18.336;2022-11-11T09:54:20;12.05;;;4.30;;
20296;SDS011;10307;40.100;18.336;2022-11-11T09:57:28;12.45;;;4.47;;
20296;SDS011;10307;40.100;18.336;2022-11-11T10:00:45;10.50;;;4.45;;
20296;SDS011;10307;40.100;18.336;2022-11-11T10:03:32;8.93;;;4.25;;
20296;SDS011;10307;40.100;18.336;2022-11-11T10:06:25;9.70;;;4.10;;
20296;SDS011;10307;40.100;18.336;2022-11-11T10:09:17;7.82;;;4.28;;
20296;SDS011;10307;40.100;18.336;2022-11-11T10:12:34;10.73;;;4.13;;
20296;SDS011;10307;40.100;18.336;2022-11-11T10:15:29;9.55;;;4.53;;
20296;SDS011;10307;40.100;18.336;2022-11-11T10:24:27;10.57;;;4.38;;
20296;SDS011;10307;40.100;18.336;2022-11-11T10:27:18;12.57;;;4.88;;
20296;SDS011;10307;40.100;18.336;2022-11-11T10:30:22;8.77;;;4.95;;
20296;SDS011;10307;40.100;18.336;2022-11-11T10:33:20;13.52;;;5.38;;
20296;SDS011;10307;40.100;18.336;2022-11-11T10:36:25;9.40;;;5.25;;
20296;SDS011;10307;40.100;18.336;2022-11-11T10:39:14;10.65;;;4.85;;
20296;SDS011;10307;40.100;18.336;2022-11-11T10:42:15;11.20;;;5.25;;
20296;SDS011;10307;40.100;18.336;2022-11-11T10:45:01;10.55;;;5.38;;
20296;SDS011;10307;40.100;18.336;2022-11-11T10:47:53;12.55;;;6.47;;
20296;SDS011;10307;40.100;18.336;2022-11-11T10:50:56;13.15;;;6.45;;
20296;SDS011;10307;40.100;18.336;2022-11-11T10:56:40;11.70;;;5.28;;
20296;SDS011;10307;40.100;18.336;2022-11-11T10:59:46;10.63;;;5.88;;
20296;SDS011;10307;40.100;18.336;2022-11-11T11:05:36;13.90;;;6.35;;
20296;SDS011;10307;40.100;18.336;2022-11-11T11:08:45;14.57;;;6.90;;
20296;SDS011;10307;40.100;18.336;2022-11-11T11:11:40;13.70;;;7.50;;
20296;SDS011;10307;40.100;18.336;2022-11-11T11:14:38;16.08;;;8.60;;
20296;SDS011;10307;40.100;18.336;2022-11-11T11:17:38;13.43;;;7.75;;
20296;SDS011;10307;40.100;18.336;2022-11-11T11:20:28;14.10;;;7.85;;
20296;SDS011;10307;40.100;18.336;2022-11-11T11:23:13;15.10;;;8.45;;
20296;SDS011;10307;40.100;18.336;2022-11-11T11:26:42;14.48;;;8.02;;
20296;SDS011;10307;40.100;18.336;2022-11-11T11:29:43;14.73;;;8.35;;
20296;SDS011;10307;40.100;18.336;2022-11-11T11:32:30;15.68;;;8.65;;
20296;SDS011;10307;40.100;18.336;2022-11-11T11:38:24;15.40;;;8.05;;
20296;SDS011;10307;40.100;18.336;2022-11-11T11:44:27;16.08;;;8.35;;
20296;SDS011;10307;40.100;18.336;2022-11-11T11:50:34;18.02;;;7.78;;
20296;SDS011;10307;40.100;18.336;2022-11-11T11:53:34;14.63;;;8.40;;
20296;SDS011;10307;40.100;18.336;2022-11-11T11:56:44;13.73;;;7.10;;
20296;SDS011;10307;40.100;18.336;2022-11-11T11:59:37;15.52;;;7.57;;
20296;SDS011;10307;40.100;18.336;2022-11-11T12:08:30;13.32;;;7.35;;
20296;SDS011;10307;40.100;18.336;2022-11-11T12:20:49;15.38;;;7.78;;
20296;SDS011;10307;40.100;18.336;2022-11-11T12:26:50;12.70;;;7.07;;
20296;SDS011;10307;40.100;18.336;2022-11-11T12:33:04;12.63;;;6.85;;
20296;SDS011;10307;40.100;18.336;2022-11-11T12:42:19;17.17;;;8.68;;
20296;SDS011;10307;40.100;18.336;2022-11-11T12:45:22;19.02;;;8.35;;
20296;SDS011;10307;40.100;18.336;2022-11-11T12:51:05;15.48;;;7.43;;
20296;SDS011;10307;40.100;18.336;2022-11-11T12:54:46;16.23;;;7.72;;
20296;SDS011;10307;40.100;18.336;2022-11-11T13:16:08;15.82;;;7.13;;
20296;SDS011;10307;40.100;18.336;2022-11-11T13:18:55;11.77;;;6.25;;
20296;SDS011;10307;40.100;18.336;2022-11-11T13:21:48;12.82;;;5.68;;
20296;SDS011;10307;40.100;18.336;2022-11-11T13:24:55;12.00;;;5.70;;
20296;SDS011;10307;40.100;18.336;2022-11-11T13:27:44;11.90;;;5.93;;
20296;SDS011;10307;40.100;18.336;2022-11-11T13:31:23;11.57;;;5.85;;
20296;SDS011;10307;40.100;18.336;2022-11-11T13:33:49;14.02;;;5.30;;
20296;SDS011;10307;40.100;18.336;2022-11-11T13:36:42;9.52;;;5.40;;
20296;SDS011;10307;40.100;18.336;2022-11-11T13:39:34;11.10;;;5.60;;
20296;SDS011;10307;40.100;18.336;2022-11-11T13:42:32;10.45;;;4.70;;
20296;SDS011;10307;40.100;18.336;2022-11-11T13:48:30;9.52;;;4.28;;
20296;SDS011;10307;40.100;18.336;2022-11-11T13:54:31;9.77;;;5.07;;
20296;SDS011;10307;40.100;18.336;2022-11-11T13:57:22;10.70;;;5.05;;
20296;SDS011;10307;40.100;18.336;2022-11-11T14:08:59;12.90;;;5.15;;
20296;SDS011;10307;40.100;18.336;2022-11-11T14:11:45;9.30;;;5.40;;
20296;SDS011;10307;40.100;18.336;2022-11-11T14:14:43;11.75;;;5.97;;
20296;SDS011;10307;40.100;18.336;2022-11-11T14:17:30;8.75;;;4.95;;
20296;SDS011;10307;40.100;18.336;2022-11-11T14:23:26;11.43;;;5.18;;
20296;SDS011;10307;40.100;18.336;2022-11-11T14:26:25;10.23;;;5.43;;
20296;SDS011;10307;40.100;18.336;2022-11-11T14:29:15;9.73;;;5.10;;
20296;SDS011;10307;40.100;18.336;2022-11-11T14:32:08;11.50;;;5.55;;
20296;SDS011;10307;40.100;18.336;2022-11-11T14:35:18;10.23;;;4.78;;
20296;SDS011;10307;40.100;18.336;2022-11-11T14:47:22;9.25;;;4.97;;
20296;SDS011;10307;40.100;18.336;2022-11-11T14:53:17;9.02;;;4.82;;
20296;SDS011;10307;40.100;18.336;2022-11-11T14:56:10;9.32;;;4.55;;
20296;SDS011;10307;40.100;18.336;2022-11-11T14:59:06;10.52;;;4.63;;
20296;SDS011;10307;40.100;18.336;2022-11-11T15:01:57;11.13;;;5.22;;
20296;SDS011;10307;40.100;18.336;2022-11-11T15:04:43;12.60;;;5.45;;
20296;SDS011;10307;40.100;18.336;2022-11-11T15:29:07;21.50;;;10.85;;
20296;SDS011;10307;40.100;18.336;2022-11-11T15:38:03;15.95;;;8.05;;
20296;SDS011;10307;40.100;18.336;2022-11-11T15:40:50;15.70;;;7.72;;
20296;SDS011;10307;40.100;18.336;2022-11-11T15:43:41;16.25;;;7.45;;
20296;SDS011;10307;40.100;18.336;2022-11-11T15:46:27;13.40;;;6.80;;
20296;SDS011;10307;40.100;18.336;2022-11-11T15:49:14;13.70;;;7.45;;
20296;SDS011;10307;40.100;18.336;2022-11-11T15:52:26;14.52;;;7.53;;
20296;SDS011;10307;40.100;18.336;2022-11-11T15:55:23;12.30;;;7.20;;
20296;SDS011;10307;40.100;18.336;2022-11-11T16:01:09;14.95;;;9.73;;
20296;SDS011;10307;40.100;18.336;2022-11-11T16:03:55;16.98;;;9.18;;
20296;SDS011;10307;40.100;18.336;2022-11-11T16:06:43;14.48;;;8.88;;
20296;SDS011;10307;40.100;18.336;2022-11-11T16:09:46;15.88;;;10.35;;
20296;SDS011;10307;40.100;18.336;2022-11-11T16:12:32;17.58;;;10.10;;
20296;SDS011;10307;40.100;18.336;2022-11-11T16:18:39;18.02;;;10.00;;
20296;SDS011;10307;40.100;18.336;2022-11-11T16:21:33;14.93;;;8.73;;
20296;SDS011;10307;40.100;18.336;2022-11-11T16:24:28;16.95;;;8.43;;
20296;SDS011;10307;40.100;18.336;2022-11-11T16:27:16;17.48;;;7.55;;
20296;SDS011;10307;40.100;18.336;2022-11-11T16:30:13;15.18;;;8.55;;
20296;SDS011;10307;40.100;18.336;2022-11-11T16:33:17;15.10;;;8.10;;
20296;SDS011;10307;40.100;18.336;2022-11-11T16:36:15;14.57;;;7.85;;
20296;SDS011;10307;40.100;18.336;2022-11-11T16:39:19;14.93;;;8.80;;
20296;SDS011;10307;40.100;18.336;2022-11-11T16:45:04;15.77;;;9.55;;
20296;SDS011;10307;40.100;18.336;2022-11-11T16:48:01;17.27;;;8.80;;
20296;SDS011;10307;40.100;18.336;2022-11-11T16:50:57;20.92;;;10.65;;
20296;SDS011;10307;40.100;18.336;2022-11-11T16:53:50;18.92;;;8.82;;
20296;SDS011;10307;40.100;18.336;2022-11-11T16:56:51;15.68;;;8.57;;
20296;SDS011;10307;40.100;18.336;2022-11-11T16:59:40;14.68;;;8.57;;
20296;SDS011;10307;40.100;18.336;2022-11-11T17:02:30;18.60;;;8.93;;
20296;SDS011;10307;40.100;18.336;2022-11-11T17:05:15;15.93;;;9.57;;
20296;SDS011;10307;40.100;18.336;2022-11-11T17:08:04;18.60;;;10.20;;
20296;SDS011;10307;40.100;18.336;2022-11-11T17:14:24;17.60;;;8.77;;
20296;SDS011;10307;40.100;18.336;2022-11-11T17:17:10;17.40;;;8.93;;
20296;SDS011;10307;40.100;18.336;2022-11-11T17:19:55;20.38;;;11.20;;
20296;SDS011;10307;40.100;18.336;2022-11-11T17:22:51;18.15;;;10.80;;
20296;SDS011;10307;40.100;18.336;2022-11-11T17:25:37;21.50;;;11.02;;
20296;SDS011;10307;40.100;18.336;2022-11-11T17:28:22;19.80;;;11.27;;
20296;SDS011;10307;40.100;18.336;2022-11-11T17:31:07;26.30;;;14.73;;
20296;SDS011;10307;40.100;18.336;2022-11-11T17:33:54;29.13;;;17.42;;
20296;SDS011;10307;40.100;18.336;2022-11-11T17:36:39;52.05;;;29.83;;
20296;SDS011;10307;40.100;18.336;2022-11-11T17:39:23;50.42;;;25.65;;
20296;SDS011;10307;40.100;18.336;2022-11-11T17:42:09;26.50;;;16.00;;
20296;SDS011;10307;40.100;18.336;2022-11-11T17:44:54;26.02;;;13.02;;
20296;SDS011;10307;40.100;18.336;2022-11-11T17:47:39;21.27;;;11.50;;
20296;SDS011;10307;40.100;18.336;2022-11-11T17:50:24;21.52;;;11.52;;
20296;SDS011;10307;40.100;18.336;2022-11-11T17:53:09;20.70;;;10.43;;
20296;SDS011;10307;40.100;18.336;2022-11-11T17:55:58;19.85;;;12.27;;
20296;SDS011;10307;40.100;18.336;2022-11-11T17:58:44;27.58;;;16.73;;
20296;SDS011;10307;40.100;18.336;2022-11-11T18:01:29;26.02;;;15.15;;
20296;SDS011;10307;40.100;18.336;2022-11-11T18:04:14;22.35;;;12.88;;
20296;SDS011;10307;40.100;18.336;2022-11-11T18:06:59;31.95;;;18.10;;
20296;SDS011;10307;40.100;18.336;2022-11-11T18:09:44;38.72;;;21.00;;
20296;SDS011;10307;40.100;18.336;2022-11-11T18:12:29;40.58;;;22.95;;
20296;SDS011;10307;40.100;18.336;2022-11-11T18:15:14;29.52;;;16.20;;
20296;SDS011;10307;40.100;18.336;2022-11-11T18:17:59;22.65;;;12.15;;
20296;SDS011;10307;40.100;18.336;2022-11-11T18:20:44;25.00;;;12.25;;
20296;SDS011;10307;40.100;18.336;2022-11-11T18:23:34;22.95;;;12.20;;
20296;SDS011;10307;40.100;18.336;2022-11-11T18:26:21;18.42;;;9.50;;
20296;SDS011;10307;40.100;18.336;2022-11-11T18:29:07;16.42;;;9.18;;
20296;SDS011;10307;40.100;18.336;2022-11-11T18:31:53;20.10;;;10.82;;
20296;SDS011;10307;40.100;18.336;2022-11-11T18:34:38;21.02;;;10.63;;
20296;SDS011;10307;40.100;18.336;2022-11-11T18:37:23;23.67;;;12.77;;
20296;SDS011;10307;40.100;18.336;2022-11-11T18:40:08;47.28;;;22.00;;
20296;SDS011;10307;40.100;18.336;2022-11-11T18:42:54;88.15;;;35.55;;
20296;SDS011;10307;40.100;18.336;2022-11-11T18:45:39;67.00;;;31.25;;
20296;SDS011;10307;40.100;18.336;2022-11-11T18:48:24;47.50;;;22.63;;
20296;SDS011;10307;40.100;18.336;2022-11-11T18:51:09;30.92;;;15.63;;
20296;SDS011;10307;40.100;18.336;2022-11-11T18:56:46;38.63;;;16.05;;